Time;durP1;ratioP1;P1;durP2;ratioP2;P2;SDS_P1;SDS_P2;PMS_P1;PMS_P2;Temp;Humidity;BMP_temperature;BMP_pressure;BME280_temperature;BME280_humidity;BME280_pressure;Samples;Min_cycle;Max_cycle;Signal;HPM_P1;HPM_P2
2022/10/04 00:00:40;;;;;;;13.80;1.00;;;;;;;11.16;92.26;100550.90;105147;1279;25405;-59
2022/10/04 00:03:38;;;;;;;9.90;1.20;;;;;;;11.17;92.35;100552.23;105192;1279;25330;-56
2022/10/04 00:06:19;;;;;;;9.00;1.30;;;;;;;11.17;92.57;100548.02;105196;1277;22553;-58
2022/10/04 00:08:56;;;;;;;11.20;1.00;;;;;;;11.16;92.60;100547.40;105316;1274;22528;-57
2022/10/04 00:11:31;;;;;;;13.90;1.60;;;;;;;11.16;92.57;100546.38;105915;1268;22558;-59
2022/10/04 00:14:06;;;;;;;11.00;1.20;;;;;;;11.15;92.55;100546.76;106163;1268;25383;-58
2022/10/04 00:16:42;;;;;;;15.20;1.40;;;;;;;11.15;92.44;100541.73;106003;1265;24274;-58
2022/10/04 00:19:41;;;;;;;8.20;0.90;;;;;;;11.14;92.64;100540.55;106174;1265;22560;-58
2022/10/04 00:22:18;;;;;;;14.10;1.00;;;;;;;11.14;92.71;100538.65;105511;1274;22563;-58
2022/10/04 00:25:19;;;;;;;7.20;0.80;;;;;;;11.12;92.55;100535.95;105638;1274;22536;-57
2022/10/04 00:28:27;;;;;;;7.70;1.10;;;;;;;11.11;92.73;100534.58;105856;1273;25314;-57
2022/10/04 00:31:21;;;;;;;13.70;1.00;;;;;;;11.09;92.77;100530.98;105670;1273;22557;-57
2022/10/04 00:33:55;;;;;;;10.80;1.20;;;;;;;11.07;92.70;100528.14;105556;1271;22516;-58
2022/10/04 00:36:45;;;;;;;5.20;1.00;;;;;;;11.07;92.72;100529.25;106098;1271;26667;-54
2022/10/04 00:39:39;;;;;;;9.90;0.90;;;;;;;11.05;92.80;100526.89;105702;1273;24114;-57
2022/10/04 00:42:30;;;;;;;11.40;1.10;;;;;;;11.04;92.75;100526.71;105569;1271;25513;-57
2022/10/04 00:45:07;;;;;;;12.90;1.00;;;;;;;11.02;92.54;100522.08;105548;1273;22568;-55
2022/10/04 00:47:57;;;;;;;21.40;2.60;;;;;;;11.00;92.64;100523.77;105553;1271;22541;-58
2022/10/04 00:50:36;;;;;;;13.40;1.20;;;;;;;10.98;92.78;100525.70;105546;1273;24411;-58
2022/10/04 00:53:21;;;;;;;11.40;1.50;;;;;;;10.96;92.64;100525.30;105549;1271;24983;-57
2022/10/04 00:55:57;;;;;;;8.30;1.00;;;;;;;10.93;92.64;100524.58;105614;1273;22646;-57
2022/10/04 00:58:35;;;;;;;10.70;1.20;;;;;;;10.90;92.65;100523.76;105815;1271;25499;-59
2022/10/04 01:01:06;;;;;;;12.00;1.30;;;;;;;10.86;92.51;100526.19;106139;1266;25202;-58
2022/10/04 01:03:42;;;;;;;13.20;1.00;;;;;;;10.81;92.52;100520.26;105994;1265;22540;-58
2022/10/04 01:06:15;;;;;;;11.30;1.10;;;;;;;10.77;92.50;100521.27;106173;1265;22546;-56
2022/10/04 01:08:52;;;;;;;10.30;1.30;;;;;;;10.74;92.75;100525.36;106018;1268;22595;-56
2022/10/04 01:11:28;;;;;;;10.10;1.00;;;;;;;10.70;92.75;100527.61;106115;1266;24299;-57
2022/10/04 01:14:04;;;;;;;11.20;0.80;;;;;;;10.66;93.01;100530.58;106029;1265;22673;-57
2022/10/04 01:16:37;;;;;;;13.00;1.30;;;;;;;10.63;92.91;100527.80;106262;1266;25729;-57
2022/10/04 01:19:40;;;;;;;9.10;0.80;;;;;;;10.60;93.03;100530.64;106136;1268;24208;-58
2022/10/04 01:22:16;;;;;;;9.20;1.10;;;;;;;10.56;93.29;100528.73;105462;1273;23541;-58
2022/10/04 01:24:47;;;;;;;10.20;0.90;;;;;;;10.54;93.39;100529.48;105495;1273;25456;-56
2022/10/04 01:27:44;;;;;;;12.30;0.90;;;;;;;10.52;93.34;100527.82;105684;1273;25393;-57
2022/10/04 01:30:18;;;;;;;13.80;0.90;;;;;;;10.49;93.63;100524.20;105276;1277;25346;-58
2022/10/04 01:32:51;;;;;;;10.90;1.10;;;;;;;10.47;93.51;100524.23;105340;1277;22548;-58
2022/10/04 01:35:23;;;;;;;5.60;0.60;;;;;;;10.45;93.68;100521.39;105610;1277;25402;-58
2022/10/04 01:37:54;;;;;;;10.90;1.00;;;;;;;10.44;93.91;100525.84;105306;1277;24715;-57
2022/10/04 01:40:26;;;;;;;11.30;0.90;;;;;;;10.42;93.92;100519.15;105300;1277;22561;-57
2022/10/04 01:43:03;;;;;;;8.40;0.80;;;;;;;10.40;93.96;100523.36;105436;1277;25249;-58
2022/10/04 01:45:39;;;;;;;11.20;1.00;;;;;;;10.39;94.14;100525.48;105373;1277;22533;-58
2022/10/04 01:48:16;;;;;;;11.70;1.60;;;;;;;10.40;94.25;100530.02;105393;1277;24227;-58
2022/10/04 01:50:54;;;;;;;8.20;1.00;;;;;;;10.40;94.36;100529.20;105352;1277;25520;-59
2022/10/04 01:53:28;;;;;;;7.90;0.80;;;;;;;10.41;94.60;100524.91;105532;1277;22537;-58
2022/10/04 01:56:09;;;;;;;8.10;0.90;;;;;;;10.42;94.63;100525.10;105263;1277;22768;-55
2022/10/04 01:58:47;;;;;;;11.20;1.40;;;;;;;10.43;94.46;100533.38;105777;1271;22720;-58
2022/10/04 02:01:27;;;;;;;12.00;1.10;;;;;;;10.43;94.50;100530.48;105963;1271;25510;-58
2022/10/04 02:04:02;;;;;;;10.30;1.30;;;;;;;10.43;94.55;100532.57;105660;1270;22532;-58
2022/10/04 02:06:39;;;;;;;7.50;0.80;;;;;;;10.42;94.59;100529.56;105860;1268;23485;-57
2022/10/04 02:09:13;;;;;;;9.10;1.10;;;;;;;10.42;94.65;100526.87;106215;1268;22579;-59
2022/10/04 02:11:49;;;;;;;7.90;1.00;;;;;;;10.42;94.87;100522.81;106105;1265;22494;-58
2022/10/04 02:14:26;;;;;;;10.60;0.90;;;;;;;10.42;94.67;100525.79;106034;1268;22561;-58
2022/10/04 02:16:58;;;;;;;11.80;1.60;;;;;;;10.40;94.88;100523.98;105994;1265;22633;-57
2022/10/04 02:19:35;;;;;;;7.00;1.00;;;;;;;10.39;94.69;100518.10;106044;1265;25304;-57
2022/10/04 02:22:10;;;;;;;10.00;0.90;;;;;;;10.36;94.85;100523.08;105985;1268;22604;-59
2022/10/04 02:24:45;;;;;;;8.90;1.20;;;;;;;10.34;94.79;100527.02;106016;1268;22563;-57
2022/10/04 02:27:16;;;;;;;14.10;1.00;;;;;;;10.32;94.90;100523.62;106028;1268;25536;-58
2022/10/04 02:29:48;;;;;;;6.90;0.70;;;;;;;10.30;95.04;100527.36;106140;1268;22635;-54
2022/10/04 02:35:09;;;;;;;12.50;1.00;;;;;;;10.31;95.58;100530.35;105988;1268;22583;-58
2022/10/04 02:37:41;;;;;;;13.40;1.20;;;;;;;10.32;95.59;100529.45;106050;1265;22589;-57
2022/10/04 02:40:18;;;;;;;13.20;1.60;;;;;;;10.34;95.73;100529.66;106016;1267;25300;-58
2022/10/04 02:42:58;;;;;;;13.60;1.90;;;;;;;10.35;95.80;100526.96;106051;1265;25380;-58
2022/10/04 02:45:38;;;;;;;14.30;1.20;;;;;;;10.38;95.90;100529.92;106234;1267;25359;-58
2022/10/04 02:48:28;;;;;;;10.60;0.90;;;;;;;10.39;95.78;100532.02;105930;1268;24235;-59
2022/10/04 02:51:12;;;;;;;10.20;1.10;;;;;;;10.39;95.85;100527.64;106050;1267;22605;-57
2022/10/04 02:53:51;;;;;;;8.40;0.80;;;;;;;10.39;95.88;100525.36;105954;1268;25448;-57
2022/10/04 02:56:24;;;;;;;13.40;1.70;;;;;;;10.38;95.82;100527.33;106417;1267;23199;-57
2022/10/04 02:59:00;;;;;;;8.10;1.00;;;;;;;10.36;95.82;100527.42;106101;1267;24874;-55
2022/10/04 03:01:46;;;;;;;9.90;0.80;;;;;;;10.36;95.95;100526.70;106086;1268;22672;-57
2022/10/04 03:04:22;;;;;;;9.70;1.10;;;;;;;10.35;95.93;100524.10;106088;1266;23056;-57
2022/10/04 03:06:54;;;;;;;7.40;1.10;;;;;;;10.33;95.86;100521.54;106136;1268;24595;-57
2022/10/04 03:09:28;;;;;;;9.80;1.10;;;;;;;10.32;96.00;100519.38;106080;1265;25298;-58
2022/10/04 03:11:59;;;;;;;7.50;1.00;;;;;;;10.32;96.32;100525.30;106069;1268;22617;-56
2022/10/04 03:14:33;;;;;;;11.00;1.20;;;;;;;10.30;95.90;100523.29;105987;1268;24232;-57
2022/10/04 03:17:05;;;;;;;10.80;1.30;;;;;;;10.29;96.07;100524.40;106020;1268;23208;-58
2022/10/04 03:19:38;;;;;;;10.40;1.20;;;;;;;10.26;96.22;100522.14;106038;1268;25432;-58
2022/10/04 03:22:12;;;;;;;11.00;0.90;;;;;;;10.23;96.05;100524.33;106069;1266;22538;-57
2022/10/04 03:24:47;;;;;;;10.30;2.10;;;;;;;10.21;96.10;100526.84;105919;1268;22536;-57
2022/10/04 03:27:23;;;;;;;7.70;1.00;;;;;;;10.18;96.13;100532.96;106215;1265;22606;-58
2022/10/04 03:29:58;;;;;;;11.00;1.60;;;;;;;10.14;96.26;100530.75;106026;1266;25569;-57
2022/10/04 03:32:31;;;;;;;11.30;1.30;;;;;;;10.10;96.31;100536.00;106241;1265;24247;-58
2022/10/04 03:35:07;;;;;;;9.90;1.20;;;;;;;10.07;96.37;100532.76;106333;1268;22532;-58
2022/10/04 03:37:40;;;;;;;8.00;1.00;;;;;;;10.04;96.51;100534.77;106080;1267;24360;-58
2022/10/04 03:40:12;;;;;;;11.50;1.30;;;;;;;10.01;96.46;100540.52;106047;1268;24319;-57
2022/10/04 03:42:46;;;;;;;12.00;1.50;;;;;;;9.99;96.71;100544.60;107511;1266;22535;-58
2022/10/04 03:45:20;;;;;;;8.60;1.00;;;;;;;9.95;97.24;100540.11;106108;1267;22551;-58
2022/10/04 03:47:52;;;;;;;6.40;0.90;;;;;;;9.95;97.23;100541.27;106032;1268;22682;-57
2022/10/04 03:50:29;;;;;;;13.20;2.00;;;;;;;9.92;97.12;100542.41;106160;1266;25476;-56
2022/10/04 03:53:03;;;;;;;11.00;1.40;;;;;;;9.89;97.18;100541.36;106025;1267;22553;-58
2022/10/04 03:55:38;;;;;;;7.20;1.10;;;;;;;9.87;97.19;100537.77;106074;1266;25360;-57
2022/10/04 03:58:12;;;;;;;11.50;1.20;;;;;;;9.86;97.51;100544.52;106014;1268;24589;-58
2022/10/04 04:00:53;;;;;;;14.70;1.00;;;;;;;9.84;97.29;100545.42;106096;1265;25283;-56
2022/10/04 04:03:29;;;;;;;9.50;1.10;;;;;;;9.82;97.48;100546.48;106061;1268;22533;-58
2022/10/04 04:06:07;;;;;;;12.00;1.40;;;;;;;9.79;97.61;100549.31;106120;1267;23974;-60
2022/10/04 04:08:44;;;;;;;7.20;1.30;;;;;;;9.77;97.80;100550.80;106032;1268;22519;-55
2022/10/04 04:11:22;;;;;;;7.70;1.10;;;;;;;9.78;98.00;100554.15;106081;1268;23209;-57
2022/10/04 04:14:00;;;;;;;11.00;1.20;;;;;;;9.78;98.25;100551.08;106100;1268;24273;-57
2022/10/04 04:16:32;;;;;;;12.20;1.10;;;;;;;9.79;98.46;100553.27;106256;1265;25277;-56
2022/10/04 04:19:11;;;;;;;11.30;1.00;;;;;;;9.80;98.20;100544.89;106112;1268;25438;-57
2022/10/04 04:21:43;;;;;;;10.50;1.30;;;;;;;9.80;97.88;100542.40;106183;1265;25302;-57
2022/10/04 04:24:24;;;;;;;11.00;2.30;;;;;;;9.79;97.94;100543.74;106092;1268;22603;-57
2022/10/04 04:26:59;;;;;;;12.40;1.20;;;;;;;9.78;97.91;100550.00;106237;1268;22531;-57
2022/10/04 04:29:39;;;;;;;10.60;1.50;;;;;;;9.76;97.89;100550.96;106204;1268;25270;-58
2022/10/04 04:32:17;;;;;;;10.40;1.20;;;;;;;9.74;97.72;100553.33;106061;1268;23167;-56
2022/10/04 04:34:53;;;;;;;11.70;1.20;;;;;;;9.73;97.83;100559.69;106051;1265;24398;-58
2022/10/04 04:37:25;;;;;;;14.80;1.80;;;;;;;9.72;98.02;100559.48;106155;1268;22878;-57
2022/10/04 04:39:56;;;;;;;12.50;1.30;;;;;;;9.72;97.92;100555.87;106266;1268;22516;-57
2022/10/04 04:42:33;;;;;;;12.90;1.50;;;;;;;9.73;98.07;100559.75;106043;1265;24300;-58
2022/10/04 04:45:14;;;;;;;11.70;1.40;;;;;;;9.72;97.89;100564.02;106306;1268;22553;-57
2022/10/04 04:47:49;;;;;;;12.10;1.20;;;;;;;9.72;98.08;100568.43;106293;1268;22527;-57
2022/10/04 04:50:23;;;;;;;10.70;1.30;;;;;;;9.69;98.27;100570.44;106642;1265;22554;-58
2022/10/04 04:52:59;;;;;;;9.10;1.10;;;;;;;9.67;98.03;100569.98;106161;1265;25275;-56
2022/10/04 04:55:35;;;;;;;8.80;1.10;;;;;;;9.65;98.18;100570.07;106047;1268;25450;-57
2022/10/04 04:58:08;;;;;;;7.80;1.00;;;;;;;9.64;98.03;100573.23;106190;1268;23710;-58
2022/10/04 05:00:42;;;;;;;6.80;1.20;;;;;;;9.62;98.09;100571.25;106055;1268;22559;-57
2022/10/04 05:03:21;;;;;;;7.20;1.10;;;;;;;9.61;98.29;100569.54;106064;1268;25394;-58
2022/10/04 05:05:53;;;;;;;12.80;1.60;;;;;;;9.60;98.43;100568.92;106361;1267;24334;-55
2022/10/04 05:08:27;;;;;;;8.50;1.40;;;;;;;9.60;98.35;100571.50;106410;1265;22963;-57
2022/10/04 05:11:06;;;;;;;12.90;1.50;;;;;;;9.59;98.50;100571.54;106233;1265;25413;-58
2022/10/04 05:13:56;;;;;;;11.40;1.70;;;;;;;9.58;98.35;100574.84;106190;1265;22606;-57
2022/10/04 05:16:34;;;;;;;7.10;1.00;;;;;;;9.57;98.57;100576.70;106314;1265;25481;-60
2022/10/04 05:19:08;;;;;;;15.00;1.50;;;;;;;9.58;98.55;100577.88;106141;1265;24944;-57
2022/10/04 05:21:42;;;;;;;11.60;1.30;;;;;;;9.58;98.65;100574.95;106005;1265;22556;-59
2022/10/04 05:24:22;;;;;;;12.20;1.20;;;;;;;9.58;98.74;100577.38;106213;1264;22525;-58
2022/10/04 05:26:57;;;;;;;9.60;1.80;;;;;;;9.58;98.86;100582.25;106187;1266;22873;-58
2022/10/04 05:29:33;;;;;;;6.80;1.10;;;;;;;9.59;98.89;100591.54;106408;1265;25401;-59
2022/10/04 05:32:22;;;;;;;12.80;1.20;;;;;;;9.60;98.78;100602.46;106272;1265;25471;-57
2022/10/04 05:34:55;;;;;;;11.20;1.10;;;;;;;9.62;99.10;100613.01;106220;1265;22605;-58
2022/10/04 05:37:43;;;;;;;13.30;1.20;;;;;;;9.63;99.58;100612.59;106283;1268;24247;-56
2022/10/04 05:40:32;;;;;;;13.00;1.30;;;;;;;9.67;99.57;100613.31;106244;1268;23941;-57
2022/10/04 05:43:21;;;;;;;13.50;1.30;;;;;;;9.71;99.60;100615.91;106458;1265;25381;-57
2022/10/04 05:46:21;;;;;;;9.40;1.30;;;;;;;9.76;99.85;100624.15;106202;1268;24361;-57
2022/10/04 05:48:55;;;;;;;12.30;1.10;;;;;;;9.81;99.89;100629.45;106119;1268;25464;-56
2022/10/04 05:51:31;;;;;;;6.20;0.80;;;;;;;9.86;99.97;100631.05;106331;1268;22528;-57
2022/10/04 05:54:04;;;;;;;12.00;1.10;;;;;;;9.89;99.91;100630.19;106179;1268;25343;-58
2022/10/04 05:57:15;;;;;;;13.40;1.30;;;;;;;9.93;99.92;100629.08;106152;1268;22524;-59
2022/10/04 06:00:05;;;;;;;13.00;1.20;;;;;;;9.95;99.65;100631.79;105642;1273;22706;-58
2022/10/04 06:02:56;;;;;;;11.40;1.00;;;;;;;9.97;99.49;100638.88;105731;1273;24315;-57
2022/10/04 06:05:34;;;;;;;14.10;1.10;;;;;;;9.99;99.52;100642.29;105541;1273;24594;-59
2022/10/04 06:08:15;;;;;;;7.80;1.20;;;;;;;10.01;99.53;100646.65;105682;1273;24418;-56
2022/10/04 06:11:04;;;;;;;12.30;1.20;;;;;;;10.04;99.57;100652.07;105585;1273;22545;-60
2022/10/04 06:14:08;;;;;;;11.20;1.50;;;;;;;10.07;99.28;100656.02;105823;1271;24303;-55
2022/10/04 06:16:55;;;;;;;13.40;2.10;;;;;;;10.10;99.34;100662.02;105302;1277;24275;-60
2022/10/04 06:20:06;;;;;;;13.20;1.10;;;;;;;10.13;99.45;100663.26;105587;1277;22775;-57
2022/10/04 06:22:46;;;;;;;11.00;1.30;;;;;;;10.17;99.50;100665.73;106717;1283;22564;-57
2022/10/04 06:25:25;;;;;;;9.60;1.50;;;;;;;10.20;99.26;100665.27;104789;1284;22975;-58
2022/10/04 06:28:06;;;;;;;8.30;1.10;;;;;;;10.23;99.27;100664.68;108582;1283;22730;-59
2022/10/04 06:30:53;;;;;;;12.50;1.20;;;;;;;10.26;99.42;100669.88;105342;1284;23596;-57
2022/10/04 06:33:45;;;;;;;12.30;2.00;;;;;;;10.27;99.28;100661.95;104679;1277;25359;-58
2022/10/04 06:36:38;;;;;;;15.80;1.90;;;;;;;10.27;99.07;100666.78;105498;1278;22522;-58
2022/10/04 06:39:38;;;;;;;9.10;1.00;;;;;;;10.29;99.19;100667.19;105392;1278;22569;-59
2022/10/04 06:42:14;;;;;;;;;;;;;;;10.32;99.12;100668.55;104735;1284;22707;-59
2022/10/04 06:45:05;;;;;;;13.20;1.30;;;;;;;10.34;99.15;100670.56;104674;1284;22640;-57
2022/10/04 06:48:00;;;;;;;18.10;2.30;;;;;;;10.38;99.17;100676.01;104615;1287;24308;-59
2022/10/04 06:50:42;;;;;;;11.00;1.20;;;;;;;10.42;99.08;100680.77;104827;1284;22553;-60
2022/10/04 06:53:24;;;;;;;8.50;1.50;;;;;;;10.48;99.19;100680.12;104736;1284;25882;-57
2022/10/04 06:56:10;;;;;;;12.10;1.90;;;;;;;10.54;99.18;100679.77;105480;1277;24249;-57
2022/10/04 06:59:07;;;;;;;14.40;1.70;;;;;;;10.61;99.06;100678.27;105455;1273;22545;-58
2022/10/04 07:01:47;;;;;;;9.70;1.80;;;;;;;10.68;98.96;100680.73;105812;1271;22956;-59
2022/10/04 07:04:29;;;;;;;9.90;0.90;;;;;;;10.74;98.67;100687.85;105624;1273;24300;-58
2022/10/04 07:07:34;;;;;;;13.50;1.70;;;;;;;10.81;98.42;100696.77;105906;1272;24306;-57
2022/10/04 07:10:18;;;;;;;12.10;1.20;;;;;;;10.92;98.68;100695.24;105613;1271;24441;-58
2022/10/04 07:12:56;;;;;;;14.20;1.30;;;;;;;11.02;98.53;100700.90;105762;1271;22542;-58
2022/10/04 07:15:32;;;;;;;10.40;1.20;;;;;;;11.11;98.01;100702.04;105593;1271;22808;-57
2022/10/04 07:18:12;;;;;;;16.40;1.50;;;;;;;11.18;97.91;100702.20;105698;1271;23355;-58
2022/10/04 07:20:46;;;;;;;11.80;1.10;;;;;;;11.25;97.32;100702.91;105927;1268;22550;-57
2022/10/04 07:23:27;;;;;;;10.10;1.00;;;;;;;11.29;96.66;100709.48;106056;1265;23999;-59
2022/10/04 07:26:03;;;;;;;10.50;1.10;;;;;;;11.31;95.50;100707.64;106226;1268;22558;-57
2022/10/04 07:31:33;;;;;;;13.20;1.90;;;;;;;11.41;94.49;100710.17;105913;1268;22525;-59
2022/10/04 07:34:12;;;;;;;11.50;0.90;;;;;;;11.48;94.62;100711.83;106210;1268;22533;-57
2022/10/04 07:36:49;;;;;;;12.10;1.10;;;;;;;11.56;94.34;100711.95;106160;1265;25406;-58
2022/10/04 07:39:25;;;;;;;11.50;1.30;;;;;;;11.63;93.47;100715.02;106108;1268;22604;-58
2022/10/04 07:42:01;;;;;;;12.50;1.50;;;;;;;11.68;92.37;100717.14;106220;1268;22597;-59
2022/10/04 07:44:39;;;;;;;9.90;1.10;;;;;;;11.71;92.75;100714.47;106325;1265;25235;-58
2022/10/04 07:47:21;;;;;;;14.80;1.30;;;;;;;11.78;93.60;100714.92;106083;1268;23121;-60
2022/10/04 07:49:53;;;;;;;9.50;0.90;;;;;;;11.88;92.68;100717.23;106087;1265;24364;-58
2022/10/04 07:52:49;;;;;;;6.30;1.00;;;;;;;11.94;91.63;100716.84;106107;1265;22531;-57
2022/10/04 07:55:27;;;;;;;9.80;0.80;;;;;;;12.00;91.78;100720.02;106028;1268;26624;-59
2022/10/04 07:58:12;;;;;;;9.30;1.00;;;;;;;12.08;90.26;100727.15;106082;1268;24424;-57
2022/10/04 08:00:53;;;;;;;13.10;1.00;;;;;;;12.13;90.46;100725.34;106139;1267;22530;-58
2022/10/04 08:03:36;;;;;;;;;;;;;;;12.16;89.97;100727.17;106230;1268;25403;-59
2022/10/04 08:06:16;;;;;;;11.30;0.90;;;;;;;12.16;89.43;100717.11;105570;1271;22540;-59
2022/10/04 08:09:05;;;;;;;10.20;0.70;;;;;;;12.24;89.49;100722.89;105703;1270;22782;-58
2022/10/04 08:11:48;;;;;;;10.80;1.10;;;;;;;12.32;89.27;100730.08;105846;1270;22570;-58
2022/10/04 08:14:30;;;;;;;15.00;1.10;;;;;;;12.32;88.93;100730.85;105719;1271;22634;-60
2022/10/04 08:17:18;;;;;;;14.90;1.30;;;;;;;12.32;89.07;100731.98;105703;1271;24481;-59
2022/10/04 08:20:03;;;;;;;15.00;0.90;;;;;;;12.42;89.49;100738.42;105877;1270;25309;-58
2022/10/04 08:22:55;;;;;;;6.90;0.90;;;;;;;12.53;89.63;100743.83;105805;1270;24233;-57
2022/10/04 08:25:38;;;;;;;5.00;0.70;;;;;;;12.62;87.65;100749.50;105641;1270;22535;-58
2022/10/04 08:31:28;;;;;;;9.60;0.70;;;;;;;12.69;86.57;100758.80;105726;1270;25379;-58
2022/10/04 08:34:16;;;;;;;8.90;1.20;;;;;;;12.81;85.46;100754.14;105565;1271;23194;-58
2022/10/04 08:37:02;;;;;;;7.90;0.70;;;;;;;12.84;84.34;100757.29;105820;1271;22595;-59
2022/10/04 08:39:48;;;;;;;9.00;0.90;;;;;;;12.85;84.15;100752.02;105582;1271;22550;-59
2022/10/04 08:42:41;;;;;;;8.90;0.70;;;;;;;12.93;85.17;100752.98;105668;1271;25433;-57
2022/10/04 08:45:58;;;;;;;8.60;0.80;;;;;;;13.10;85.16;100750.79;105953;1268;23119;-58
2022/10/04 08:49:04;;;;;;;8.20;0.90;;;;;;;13.13;83.49;100748.77;105557;1271;22531;-57
2022/10/04 08:52:29;;;;;;;9.90;0.70;;;;;;;13.11;81.88;100764.27;105553;1273;22534;-59
2022/10/04 08:55:36;;;;;;;10.20;0.90;;;;;;;13.14;81.86;100760.96;105589;1271;25202;-57
2022/10/04 08:58:26;;;;;;;10.40;1.50;;;;;;;13.18;81.44;100761.67;105583;1272;26514;-58
2022/10/04 09:01:06;;;;;;;7.40;0.80;;;;;;;13.22;80.14;100763.98;105549;1273;25471;-57
2022/10/04 09:04:21;;;;;;;9.40;0.80;;;;;;;13.26;80.19;100767.13;105663;1273;25354;-57
2022/10/04 09:07:07;;;;;;;16.10;0.90;;;;;;;13.30;80.84;100761.98;105628;1273;25529;-57
2022/10/04 09:10:32;;;;;;;7.30;0.60;;;;;;;13.36;81.45;100759.07;105541;1273;25375;-59
2022/10/04 09:13:14;;;;;;;7.30;0.80;;;;;;;13.43;80.36;100760.54;104812;1282;22952;-57
2022/10/04 09:15:55;;;;;;;5.90;0.60;;;;;;;13.45;81.09;100763.20;104867;1282;22661;-59
2022/10/04 09:18:49;;;;;;;5.00;0.60;;;;;;;13.52;80.45;100767.64;105097;1282;25537;-60
2022/10/04 09:21:40;;;;;;;8.10;0.60;;;;;;;13.62;80.23;100768.75;105056;1282;22721;-59
2022/10/04 09:24:50;;;;;;;5.30;0.60;;;;;;;13.69;78.90;100771.47;105086;1277;23234;-60
2022/10/04 09:27:45;;;;;;;6.40;1.20;;;;;;;13.74;78.18;100779.35;105520;1276;22568;-58
2022/10/04 09:30:20;;;;;;;9.20;0.60;;;;;;;13.77;78.50;100778.77;105588;1276;24306;-58
2022/10/04 09:33:32;;;;;;;8.70;0.80;;;;;;;13.70;76.73;100776.63;105616;1276;22640;-60
2022/10/04 09:36:33;;;;;;;3.80;0.60;;;;;;;13.66;76.10;100777.90;105436;1279;25214;-59
2022/10/04 09:39:18;;;;;;;7.90;0.90;;;;;;;13.65;77.25;100775.60;104490;1287;25495;-60
2022/10/04 09:42:14;;;;;;;5.70;0.70;;;;;;;13.69;78.16;100778.29;104515;1287;22745;-58
2022/10/04 09:45:07;;;;;;;7.20;0.60;;;;;;;13.83;77.69;100775.64;104445;1287;22548;-59
2022/10/04 09:47:50;;;;;;;7.20;0.70;;;;;;;13.97;76.53;100774.77;104802;1282;25283;-58
2022/10/04 09:51:10;;;;;;;4.80;0.50;;;;;;;14.08;76.30;100779.15;105378;1276;26219;-58
2022/10/04 09:53:56;;;;;;;4.70;0.50;;;;;;;14.18;77.47;100782.71;105301;1276;25389;-59
2022/10/04 09:57:09;;;;;;;5.60;0.60;;;;;;;14.25;76.29;100783.16;105363;1276;24381;-58
2022/10/04 09:59:58;;;;;;;6.30;0.80;;;;;;;14.24;74.49;100785.50;104719;1282;25412;-60
2022/10/04 10:03:05;;;;;;;5.60;0.50;;;;;;;14.16;74.75;100788.20;105157;1282;22562;-56
2022/10/04 10:05:56;;;;;;;12.50;1.00;;;;;;;14.11;75.82;100787.67;104157;1288;25362;-58
2022/10/04 10:08:37;;;;;;;2.70;0.50;;;;;;;14.07;76.57;100788.89;104434;1287;22732;-59
2022/10/04 10:14:46;;;;;;;4.20;0.70;;;;;;;13.94;75.57;100798.31;104722;1284;22811;-59
2022/10/04 10:17:26;;;;;;;4.60;0.60;;;;;;;13.80;75.10;100800.00;105103;1278;22709;-60
2022/10/04 10:20:15;;;;;;;8.50;0.50;;;;;;;13.71;75.58;100798.94;105268;1279;25468;-61
2022/10/04 10:23:25;;;;;;;6.80;0.70;;;;;;;13.68;76.07;100801.87;105721;1278;24265;-60
2022/10/04 10:26:30;;;;;;;13.60;1.00;;;;;;;13.80;76.84;100799.95;104747;1284;25358;-60
2022/10/04 10:29:35;;;;;;;7.00;0.90;;;;;;;14.03;75.27;100808.89;104692;1284;23084;-59
2022/10/04 10:32:29;;;;;;;9.60;0.60;;;;;;;14.15;74.18;100806.71;104634;1284;24541;-59
2022/10/04 10:35:27;;;;;;;9.30;0.70;;;;;;;14.17;73.35;100810.57;104653;1284;24419;-58
2022/10/04 10:38:20;;;;;;;5.10;0.70;;;;;;;14.15;72.72;100806.00;105452;1279;22703;-57
2022/10/04 10:41:31;;;;;;;4.70;0.50;;;;;;;14.16;73.78;100811.13;105373;1279;22534;-58
2022/10/04 10:44:15;;;;;;;5.80;0.70;;;;;;;14.16;72.92;100808.36;105281;1276;22566;-58
2022/10/04 10:47:04;;;;;;;6.60;0.70;;;;;;;14.17;73.17;100808.14;105328;1276;22529;-57
2022/10/04 10:49:48;;;;;;;3.60;0.40;;;;;;;14.27;71.96;100808.42;104881;1276;696278;-59
2022/10/04 10:52:58;;;;;;;3.90;0.50;;;;;;;14.46;72.21;100813.73;105389;1276;22567;-59
2022/10/04 10:55:42;;;;;;;7.50;0.50;;;;;;;14.57;70.60;100817.23;104713;1283;25355;-58
2022/10/04 10:58:53;;;;;;;7.00;0.60;;;;;;;14.49;70.31;100818.98;104831;1282;22542;-59
2022/10/04 11:02:03;;;;;;;5.30;0.50;;;;;;;14.40;71.16;100815.80;104663;1285;24250;-59
2022/10/04 11:04:58;;;;;;;9.30;0.70;;;;;;;14.37;71.42;100818.38;104728;1284;22695;-58
2022/10/04 11:07:50;;;;;;;6.00;0.60;;;;;;;14.39;71.39;100817.89;104713;1282;24542;-57
2022/10/04 11:10:58;;;;;;;8.20;0.70;;;;;;;14.46;70.99;100815.22;104715;1284;27751;-59
2022/10/04 11:13:56;;;;;;;11.20;0.90;;;;;;;14.54;70.60;100813.98;104760;1284;22565;-58
2022/10/04 11:16:47;;;;;;;10.50;0.80;;;;;;;14.56;70.73;100810.95;104666;1285;22677;-58
2022/10/04 11:19:53;;;;;;;5.20;0.60;;;;;;;14.64;71.67;100810.88;104736;1285;22572;-58
2022/10/04 11:22:49;;;;;;;6.70;0.80;;;;;;;14.81;71.57;100809.23;105416;1276;24312;-57
2022/10/04 11:25:40;;;;;;;7.70;0.60;;;;;;;14.98;69.93;100815.44;105292;1276;22654;-59
2022/10/04 11:28:17;;;;;;;9.00;0.70;;;;;;;15.09;69.22;100817.00;105377;1276;22907;-60
2022/10/04 11:31:23;;;;;;;8.00;0.70;;;;;;;15.17;69.45;100817.64;105406;1276;22524;-57
2022/10/04 11:34:18;;;;;;;8.30;0.50;;;;;;;15.14;68.50;100821.64;105676;1273;22524;-58
2022/10/04 11:37:02;;;;;;;11.00;0.70;;;;;;;15.09;67.38;100826.09;105574;1273;22627;-57
2022/10/04 11:40:02;;;;;;;4.00;0.50;;;;;;;15.06;66.99;100824.73;105666;1271;22677;-59
2022/10/04 11:42:52;;;;;;;4.00;0.50;;;;;;;15.07;66.93;100823.06;105785;1270;24242;-59
2022/10/04 11:46:00;;;;;;;2.60;0.30;;;;;;;15.14;65.44;100824.50;105958;1271;26435;-59
2022/10/04 11:48:48;;;;;;;7.10;0.60;;;;;;;15.21;66.30;100818.48;104989;1281;22695;-58
2022/10/04 11:52:01;;;;;;;6.20;0.50;;;;;;;15.31;65.42;100819.45;105099;1280;24320;-58
2022/10/04 11:55:00;;;;;;;5.90;0.60;;;;;;;15.41;62.60;100823.59;104074;1290;25364;-59
2022/10/04 11:57:40;;;;;;;7.20;0.40;;;;;;;15.43;63.28;100828.15;104244;1290;25500;-58
2022/10/04 12:00:19;;;;;;;6.30;0.50;;;;;;;15.35;62.55;100834.13;104131;1291;25539;-61
2022/10/04 12:03:15;;;;;;;4.60;0.30;;;;;;;15.25;62.41;100845.94;104232;1290;22965;-58
2022/10/04 12:06:26;;;;;;;4.60;0.30;;;;;;;15.13;63.64;100844.50;104052;1291;22768;-58
2022/10/04 12:09:14;;;;;;;2.90;0.40;;;;;;;15.11;64.29;100844.59;103679;1294;25438;-58
2022/10/04 12:15:41;;;;;;;3.50;0.50;;;;;;;15.19;64.31;100836.88;103626;1294;25535;-59
2022/10/04 12:18:32;;;;;;;6.90;0.90;;;;;;;15.28;64.00;100831.95;103723;1294;24465;-60
2022/10/04 12:21:33;;;;;;;5.40;0.40;;;;;;;15.32;63.12;100835.78;103761;1293;24344;-58
2022/10/04 12:24:22;;;;;;;3.70;0.50;;;;;;;15.30;61.49;100840.36;103833;1293;23384;-58
2022/10/04 12:27:24;;;;;;;7.00;0.70;;;;;;;15.27;62.70;100834.00;104764;1281;23129;-59
2022/10/04 12:30:19;;;;;;;9.30;0.70;;;;;;;15.25;62.61;100832.03;105159;1281;24248;-57
2022/10/04 12:33:05;;;;;;;7.10;0.50;;;;;;;15.19;62.56;100833.20;105671;1271;22693;-58
2022/10/04 12:35:47;;;;;;;7.30;0.90;;;;;;;15.18;63.46;100824.30;105807;1271;23039;-59
2022/10/04 12:38:42;;;;;;;2.10;0.50;;;;;;;15.18;63.90;100823.99;105802;1271;25579;-58
2022/10/04 12:41:26;;;;;;;5.30;0.60;;;;;;;15.19;64.18;100828.13;105428;1273;24320;-57
2022/10/04 12:44:11;;;;;;;14.00;0.70;;;;;;;15.20;64.54;100829.16;105578;1273;25482;-58
2022/10/04 12:46:52;;;;;;;6.70;0.70;;;;;;;15.23;64.44;100829.61;105621;1273;23107;-59
2022/10/04 12:49:39;;;;;;;5.70;0.60;;;;;;;15.20;63.50;100833.00;105685;1274;22586;-60